createdAt,value
2018-10-06T00:01:54.007Z,11.30
2018-10-06T00:04:26.396Z,11.67
2018-10-06T00:06:55.472Z,11.60
2018-10-06T00:09:36.812Z,11.20
2018-10-06T00:12:05.629Z,12.90
2018-10-06T00:14:34.556Z,16.43
2018-10-06T00:17:03.626Z,12.50
2018-10-06T00:19:34.899Z,17.17
2018-10-06T00:22:04.276Z,12.93
2018-10-06T00:24:36.272Z,11.13
2018-10-06T00:27:05.356Z,10.47
2018-10-06T00:29:40.059Z,13.17
2018-10-06T00:32:08.954Z,13.27
2018-10-06T00:34:41.335Z,10.83
2018-10-06T00:37:10.089Z,13.67
2018-10-06T00:39:43.791Z,10.63
2018-10-06T00:42:12.925Z,13.23
2018-10-06T00:44:47.360Z,17.33
2018-10-06T00:47:16.830Z,15.83
2018-10-06T00:49:49.848Z,16.80
2018-10-06T00:52:18.471Z,14.23
2018-10-06T00:54:52.274Z,13.80
2018-10-06T00:57:21.324Z,29.07
2018-10-06T00:59:54.440Z,13.30
2018-10-06T01:02:23.099Z,17.33
2018-10-06T01:11:47.104Z,22.77
2018-10-06T01:14:16.928Z,16.87
2018-10-06T01:16:46.191Z,22.20
2018-10-06T01:19:15.383Z,16.43
2018-10-06T01:21:44.136Z,13.20
2018-10-06T01:24:13.540Z,24.67
2018-10-06T01:26:42.845Z,22.27
2018-10-06T01:31:51.418Z,9.10
2018-10-06T01:34:20.106Z,9.07
2018-10-06T01:36:49.557Z,10.67
2018-10-06T01:39:18.210Z,7.80
2018-10-06T01:41:47.331Z,8.07
2018-10-06T01:44:20.815Z,8.23
2018-10-06T01:46:49.492Z,8.57
2018-10-06T01:49:23.148Z,9.60
2018-10-06T01:51:52.763Z,9.97
2018-10-06T01:54:34.380Z,9.47
2018-10-06T01:57:03.850Z,10.30
2018-10-06T01:59:32.563Z,10.83
2018-10-06T02:02:01.676Z,11.13
2018-10-06T02:04:31.133Z,10.00
2018-10-06T02:06:59.880Z,10.13
2018-10-06T02:09:32.437Z,11.20
2018-10-06T02:12:01.339Z,11.30
2018-10-06T02:14:34.551Z,10.97
2018-10-06T02:17:03.189Z,10.03
2018-10-06T02:19:37.074Z,10.53
2018-10-06T02:22:05.762Z,10.47
2018-10-06T02:24:41.922Z,10.47
2018-10-06T02:27:11.304Z,9.93
2018-10-06T02:29:43.714Z,8.73
2018-10-06T02:32:12.339Z,8.73
2018-10-06T02:34:46.222Z,8.10
2018-10-06T02:37:15.337Z,8.53
2018-10-06T02:39:49.411Z,9.80
2018-10-06T02:42:19.091Z,9.90
2018-10-06T02:44:51.880Z,9.73
2018-10-06T02:47:21.056Z,8.53
2018-10-06T02:49:54.406Z,7.67
2018-10-06T02:52:23.803Z,7.90
2018-10-06T02:54:57.015Z,7.17
2018-10-06T02:57:26.415Z,9.40
2018-10-06T02:59:59.989Z,7.27
2018-10-06T03:02:28.919Z,6.13
2018-10-06T03:05:04.083Z,6.63
2018-10-06T03:07:32.737Z,7.63
2018-10-06T03:10:07.306Z,9.10
2018-10-06T03:12:36.680Z,8.93
2018-10-06T03:15:12.075Z,7.70
2018-10-06T03:17:41.396Z,7.60
2018-10-06T03:20:14.692Z,7.90
2018-10-06T03:22:43.332Z,7.50
2018-10-06T03:25:24.836Z,8.80
2018-10-06T03:27:54.208Z,8.30
2018-10-06T03:30:23.396Z,8.53
2018-10-06T03:32:52.507Z,7.63
2018-10-06T03:35:21.928Z,7.27
2018-10-06T03:37:50.575Z,6.50
2018-10-06T03:40:23.187Z,6.53
2018-10-06T03:42:52.142Z,5.83
2018-10-06T03:45:33.472Z,5.23
2018-10-06T03:48:02.524Z,10.63
2018-10-06T03:50:31.178Z,6.63
2018-10-06T03:52:59.853Z,6.17
2018-10-06T03:55:32.418Z,5.77
2018-10-06T03:58:01.743Z,5.37
2018-10-06T04:00:42.848Z,4.60
2018-10-06T04:03:12.082Z,5.10
2018-10-06T04:05:41.640Z,5.50
2018-10-06T04:08:10.336Z,5.13
2018-10-06T04:10:42.723Z,4.87
2018-10-06T04:13:11.662Z,4.93
2018-10-06T04:15:44.885Z,4.90
2018-10-06T04:18:13.542Z,5.60
2018-10-06T04:20:47.780Z,5.00
2018-10-06T04:23:16.537Z,4.33
2018-10-06T04:25:50.726Z,5.20
2018-10-06T04:28:20.259Z,4.63
2018-10-06T04:30:52.739Z,4.63
2018-10-06T04:33:21.470Z,4.70
2018-10-06T04:35:56.844Z,4.50
2018-10-06T04:38:25.991Z,4.27
2018-10-06T04:40:59.235Z,4.60
2018-10-06T04:43:28.625Z,4.63
2018-10-06T04:46:09.991Z,4.47
2018-10-06T04:48:39.392Z,5.10
2018-10-06T04:51:08.603Z,4.23
2018-10-06T04:53:37.736Z,4.63
2018-10-06T04:56:07.697Z,4.90
2018-10-06T04:58:36.883Z,4.27
2018-10-06T05:01:13.140Z,3.83
2018-10-06T05:03:41.798Z,4.77
2018-10-06T05:06:13.758Z,4.17
2018-10-06T05:08:42.968Z,5.17
2018-10-06T05:11:17.239Z,4.03
2018-10-06T05:13:45.897Z,4.63
2018-10-06T05:16:18.601Z,4.37
2018-10-06T05:18:47.538Z,4.03
2018-10-06T05:21:21.836Z,4.50
2018-10-06T05:23:50.497Z,4.13
2018-10-06T05:26:31.664Z,4.10
2018-10-06T05:29:00.821Z,4.40
2018-10-06T05:31:30.055Z,4.10
2018-10-06T05:33:59.118Z,3.70
2018-10-06T05:36:30.963Z,4.03
2018-10-06T05:39:00.129Z,4.27
2018-10-06T05:41:33.292Z,4.50
2018-10-06T05:44:01.976Z,4.10
2018-10-06T05:46:43.377Z,4.40
2018-10-06T05:49:12.025Z,4.33
2018-10-06T05:51:41.184Z,4.70
2018-10-06T05:54:10.608Z,4.70
2018-10-06T05:56:40.662Z,4.67
2018-10-06T05:59:09.404Z,4.63
2018-10-06T06:01:42.579Z,4.87
2018-10-06T06:04:11.719Z,5.33
2018-10-06T06:06:45.757Z,5.07
2018-10-06T06:09:14.440Z,5.20
2018-10-06T06:11:50.232Z,6.00
2018-10-06T06:14:19.235Z,8.40
2018-10-06T06:16:51.761Z,9.43
2018-10-06T06:19:20.779Z,9.47
2018-10-06T06:21:55.459Z,10.73
2018-10-06T06:24:24.601Z,15.50
2018-10-06T06:27:05.936Z,9.30
2018-10-06T06:29:35.347Z,6.80
2018-10-06T06:32:04.538Z,7.13
2018-10-06T06:34:33.671Z,7.43
2018-10-06T06:37:04.638Z,6.13
2018-10-06T06:39:33.821Z,8.37
2018-10-06T06:42:07.779Z,7.40
2018-10-06T06:44:36.982Z,8.47
2018-10-06T06:47:11.175Z,6.47
2018-10-06T06:49:40.307Z,5.93
2018-10-06T06:52:14.127Z,5.63
2018-10-06T06:54:43.255Z,7.27
2018-10-06T06:57:16.132Z,7.97
2018-10-06T06:59:44.845Z,8.10
2018-10-06T07:02:20.333Z,8.77
2018-10-06T07:04:49.739Z,9.43
2018-10-06T07:07:21.715Z,7.20
2018-10-06T07:09:50.929Z,7.40
2018-10-06T07:12:32.695Z,7.63
2018-10-06T07:15:01.398Z,7.40
2018-10-06T07:17:30.860Z,11.73
2018-10-06T07:19:59.654Z,8.07
2018-10-06T07:22:32.325Z,6.37
2018-10-06T07:25:01.508Z,5.70
2018-10-06T07:27:33.703Z,5.87
2018-10-06T07:30:02.882Z,6.90
2018-10-06T07:32:35.830Z,5.33
2018-10-06T07:35:05.181Z,5.13
2018-10-06T07:37:38.040Z,4.95
2018-10-06T07:40:09.701Z,5.60
2018-10-06T07:42:40.824Z,4.35
2018-10-06T07:45:09.968Z,4.70
2018-10-06T07:47:43.821Z,4.70
2018-10-06T07:50:12.988Z,4.28
2018-10-06T07:52:45.676Z,4.40
2018-10-06T07:55:15.154Z,3.80
2018-10-06T07:57:48.911Z,4.33
2018-10-06T08:00:17.643Z,3.75
2018-10-06T08:02:51.324Z,4.80
2018-10-06T08:05:20.491Z,3.55
2018-10-06T08:07:55.113Z,4.33
2018-10-06T08:10:24.279Z,4.30
2018-10-06T08:12:57.177Z,3.67
2018-10-06T08:15:26.238Z,3.37
2018-10-06T08:17:59.695Z,3.20
2018-10-06T08:20:28.353Z,3.52
2018-10-06T08:23:03.018Z,4.25
2018-10-06T08:25:31.671Z,4.42
2018-10-06T08:28:04.623Z,5.03
2018-10-06T08:30:34.259Z,3.52
2018-10-06T08:33:09.579Z,3.93
2018-10-06T08:35:38.599Z,3.97
2018-10-06T08:38:20.713Z,3.97
2018-10-06T08:40:49.751Z,3.40
2018-10-06T08:43:19.360Z,3.43
2018-10-06T08:45:53.149Z,3.30
2018-10-06T08:48:22.559Z,3.33
2018-10-06T08:50:52.867Z,3.33
2018-10-06T08:53:30.803Z,3.33
2018-10-06T08:56:00.547Z,3.33
2018-10-06T08:58:29.343Z,3.27
2018-10-06T09:00:58.825Z,2.83
2018-10-06T09:03:28.318Z,4.43
2018-10-06T09:05:56.976Z,3.40
2018-10-06T09:08:27.739Z,3.57
2018-10-06T09:10:57.307Z,3.17
2018-10-06T09:13:30.217Z,3.20
2018-10-06T09:15:59.449Z,3.23
2018-10-06T09:18:34.558Z,3.43
2018-10-06T09:21:03.232Z,3.30
2018-10-06T09:23:36.082Z,2.57
2018-10-06T09:26:09.114Z,3.30
2018-10-06T09:28:38.357Z,2.90
2018-10-06T09:31:08.281Z,3.30
2018-10-06T09:33:40.929Z,3.30
2018-10-06T09:36:11.247Z,3.37
2018-10-06T09:38:42.583Z,3.00
2018-10-06T09:41:12.063Z,3.67
2018-10-06T09:43:45.158Z,2.67
2018-10-06T09:46:13.872Z,2.97
2018-10-06T09:48:48.483Z,3.83
2018-10-06T09:51:17.679Z,3.10
2018-10-06T09:53:51.266Z,3.00
2018-10-06T09:56:20.195Z,3.27
2018-10-06T09:58:54.262Z,3.70
2018-10-06T10:03:29.588Z,3.57
2018-10-06T10:05:58.822Z,2.60
2018-10-06T10:08:28.371Z,3.13
2018-10-06T10:11:09.733Z,2.50
2018-10-06T10:13:38.887Z,3.00
2018-10-06T10:16:08.107Z,2.70
2018-10-06T10:18:37.272Z,2.20
2018-10-06T10:21:08.839Z,2.20
2018-10-06T10:23:37.523Z,2.50
2018-10-06T10:26:12.004Z,2.50
2018-10-06T10:28:44.703Z,2.03
2018-10-06T10:31:14.861Z,2.50
2018-10-06T10:33:44.212Z,2.40
2018-10-06T10:36:17.890Z,2.23
2018-10-06T10:38:46.564Z,2.20
2018-10-06T10:41:20.277Z,2.50
2018-10-06T10:43:49.495Z,4.13
2018-10-06T10:46:21.300Z,1.93
2018-10-06T10:48:51.011Z,2.30
2018-10-06T10:51:23.649Z,2.20
2018-10-06T10:53:52.295Z,2.10
2018-10-06T10:56:33.880Z,2.53
2018-10-06T10:59:03.959Z,2.37
2018-10-06T11:01:33.464Z,2.37
2018-10-06T11:04:02.711Z,2.20
2018-10-06T11:06:32.532Z,2.40
2018-10-06T11:09:02.012Z,1.90
2018-10-06T11:11:36.646Z,2.40
2018-10-06T11:14:06.368Z,2.33
2018-10-06T11:16:38.119Z,2.43
2018-10-06T11:19:07.512Z,2.33
2018-10-06T11:21:41.494Z,3.00
2018-10-06T11:24:10.925Z,1.97
2018-10-06T11:26:52.627Z,2.57
2018-10-06T11:29:22.272Z,2.30
2018-10-06T11:31:51.112Z,2.43
2018-10-06T11:34:20.272Z,2.00
2018-10-06T11:36:50.861Z,2.43
2018-10-06T11:39:20.020Z,2.10
2018-10-06T11:41:54.452Z,2.17
2018-10-06T11:44:24.477Z,2.23
2018-10-06T11:46:57.131Z,2.03
2018-10-06T11:49:25.809Z,2.80
2018-10-06T11:51:57.921Z,2.80
2018-10-06T11:54:27.300Z,2.47
2018-10-06T11:57:00.855Z,2.53
2018-10-06T11:59:31.277Z,2.77
2018-10-06T12:02:13.300Z,2.43
2018-10-06T12:04:42.230Z,2.70
2018-10-06T12:07:12.314Z,2.10
2018-10-06T12:09:41.525Z,2.23
2018-10-06T12:12:13.999Z,2.83
2018-10-06T12:14:43.128Z,2.53
2018-10-06T12:17:14.140Z,2.50
2018-10-06T12:19:44.600Z,2.40
2018-10-06T12:22:16.959Z,2.33
2018-10-06T12:24:45.642Z,2.40
2018-10-06T12:27:19.296Z,2.40
2018-10-06T12:29:48.455Z,2.43
2018-10-06T12:32:27.306Z,2.70
2018-10-06T12:34:57.200Z,2.70
2018-10-06T12:37:28.440Z,2.67
2018-10-06T12:39:57.883Z,2.77
2018-10-06T12:42:28.990Z,2.30
2018-10-06T12:44:59.335Z,2.47
2018-10-06T12:47:30.045Z,2.40
2018-10-06T12:49:59.758Z,2.63
2018-10-06T12:52:32.924Z,2.47
2018-10-06T12:55:02.147Z,2.67
2018-10-06T12:57:35.547Z,2.90
2018-10-06T13:00:04.904Z,3.30
2018-10-06T13:02:37.535Z,2.70
2018-10-06T13:05:07.233Z,2.90
2018-10-06T13:07:40.224Z,2.97
2018-10-06T13:10:09.416Z,3.90
2018-10-06T13:12:41.739Z,3.20
2018-10-06T13:15:10.392Z,3.58
2018-10-06T13:17:43.959Z,3.90
2018-10-06T13:20:13.189Z,3.10
2018-10-06T13:22:47.373Z,3.20
2018-10-06T13:25:16.079Z,3.20
2018-10-06T13:27:52.611Z,3.17
2018-10-06T13:30:23.265Z,2.67
2018-10-06T13:32:53.645Z,3.30
2018-10-06T13:35:23.115Z,2.87
2018-10-06T13:37:56.706Z,3.03
2018-10-06T13:40:25.359Z,3.27
2018-10-06T13:42:58.535Z,2.93
2018-10-06T13:45:27.814Z,3.13
2018-10-06T13:48:02.206Z,2.80
2018-10-06T13:50:32.018Z,2.80
2018-10-06T13:53:13.715Z,2.77
2018-10-06T13:55:42.384Z,3.33
2018-10-06T13:58:11.941Z,2.80
2018-10-06T14:00:41.464Z,2.37
2018-10-06T14:03:14.048Z,2.80
2018-10-06T14:05:43.175Z,2.83
2018-10-06T14:08:15.193Z,3.00
2018-10-06T14:10:44.398Z,2.60
2018-10-06T14:13:18.335Z,2.57
2018-10-06T14:15:47.352Z,2.60
2018-10-06T14:18:20.656Z,3.10
2018-10-06T14:20:49.330Z,2.90
2018-10-06T14:23:23.060Z,3.17
2018-10-06T14:25:53.531Z,3.27
2018-10-06T14:28:26.963Z,2.90
2018-10-06T14:30:56.464Z,2.77
2018-10-06T14:33:27.238Z,2.70
2018-10-06T14:35:55.887Z,2.80
2018-10-06T14:38:28.928Z,3.27
2018-10-06T14:40:58.859Z,2.70
2018-10-06T14:43:32.867Z,2.97
2018-10-06T14:46:02.601Z,2.60
2018-10-06T14:48:34.963Z,3.00
2018-10-06T14:51:04.542Z,3.30
2018-10-06T14:53:38.703Z,3.10
2018-10-06T14:56:07.491Z,3.10
2018-10-06T14:58:40.115Z,2.90
2018-10-06T15:01:09.869Z,3.07
2018-10-06T15:03:43.213Z,2.60
2018-10-06T15:06:12.860Z,2.90
2018-10-06T15:08:47.957Z,2.70
2018-10-06T15:11:17.196Z,2.62
2018-10-06T15:13:48.519Z,2.60
2018-10-06T15:16:17.316Z,2.63
2018-10-06T15:18:54.925Z,2.63
2018-10-06T15:21:24.684Z,3.20
2018-10-06T15:23:56.032Z,2.60
2018-10-06T15:26:25.485Z,2.73
2018-10-06T15:28:58.538Z,2.63
2018-10-06T15:31:27.779Z,2.63
2018-10-06T15:34:09.713Z,3.13
2018-10-06T15:36:39.615Z,2.80
2018-10-06T15:39:09.842Z,3.00
2018-10-06T15:41:38.834Z,3.00
2018-10-06T15:44:09.087Z,2.60
2018-10-06T15:46:38.302Z,2.70
2018-10-06T15:49:15.644Z,2.87
2018-10-06T15:51:45.734Z,2.90
2018-10-06T15:54:14.907Z,2.63
2018-10-06T15:56:49.663Z,2.57
2018-10-06T15:59:19.090Z,30.03
2018-10-06T16:01:47.934Z,4.03
2018-10-06T16:04:18.315Z,3.17
2018-10-06T16:06:55.697Z,3.30
2018-10-06T16:09:25.214Z,2.87
2018-10-06T16:12:01.258Z,4.07
2018-10-06T16:14:30.710Z,3.70
2018-10-06T16:16:59.855Z,3.10
2018-10-06T16:19:28.519Z,3.20
2018-10-06T16:21:58.134Z,4.77
2018-10-06T16:24:28.820Z,40.50
2018-10-06T16:26:58.028Z,8.93
2018-10-06T16:29:30.339Z,12.23
2018-10-06T16:32:00.057Z,6.77
2018-10-06T16:34:33.867Z,10.87
2018-10-06T16:37:02.891Z,11.03
2018-10-06T16:39:35.784Z,5.53
2018-10-06T16:42:04.446Z,17.53
2018-10-06T16:44:37.136Z,4.70
2018-10-06T16:47:06.936Z,6.83
2018-10-06T16:49:40.502Z,3.53
2018-10-06T16:52:11.214Z,5.70
2018-10-06T16:54:44.412Z,4.60
2018-10-06T16:57:13.107Z,10.53
2018-10-06T16:59:48.950Z,12.17
2018-10-06T17:02:18.659Z,4.33
2018-10-06T17:04:51.416Z,5.23
2018-10-06T17:07:21.174Z,7.57
2018-10-06T17:09:53.142Z,5.50
2018-10-06T17:12:22.527Z,20.90
2018-10-06T17:15:03.884Z,13.47
2018-10-06T17:17:32.820Z,9.33
2018-10-06T17:20:01.639Z,4.47
2018-10-06T17:22:30.396Z,5.43
2018-10-06T17:25:01.591Z,3.90
2018-10-06T17:27:31.329Z,3.93
2018-10-06T17:30:12.710Z,4.00
2018-10-06T17:32:42.128Z,4.20
2018-10-06T17:35:11.311Z,8.73
2018-10-06T17:37:40.950Z,4.70
2018-10-06T17:40:12.896Z,5.23
2018-10-06T17:42:41.561Z,9.53
2018-10-06T17:45:14.472Z,4.70
2018-10-06T17:47:43.391Z,4.20
2018-10-06T17:50:16.956Z,3.47
2018-10-06T17:52:45.483Z,3.93
2018-10-06T17:55:20.277Z,3.87
2018-10-06T17:57:50.370Z,3.17
2018-10-06T18:00:23.674Z,3.80
2018-10-06T18:02:52.364Z,4.47
2018-10-06T18:05:25.508Z,3.63
2018-10-06T18:07:55.203Z,3.17
2018-10-06T18:10:27.516Z,3.27
2018-10-06T18:12:56.676Z,3.40
2018-10-06T18:15:30.447Z,3.50
2018-10-06T18:17:59.635Z,3.50
2018-10-06T18:20:33.319Z,3.50
2018-10-06T18:23:02.293Z,3.90
2018-10-06T18:25:34.395Z,3.47
2018-10-06T18:28:03.523Z,3.47
2018-10-06T18:30:45.362Z,4.50
2018-10-06T18:33:14.023Z,3.80
2018-10-06T18:35:43.152Z,4.97
2018-10-06T18:38:12.663Z,5.60
2018-10-06T18:40:42.213Z,10.50
2018-10-06T18:43:11.916Z,8.13
2018-10-06T18:45:46.310Z,4.90
2018-10-06T18:48:15.456Z,7.00
2018-10-06T18:50:56.927Z,7.90
2018-10-06T18:53:26.079Z,11.37
2018-10-06T18:55:55.645Z,8.00
2018-10-06T18:58:24.796Z,6.83
2018-10-06T19:00:53.948Z,7.03
2018-10-06T19:03:24.337Z,5.83
2018-10-06T19:05:56.714Z,6.97
2018-10-06T19:08:25.676Z,7.63
2018-10-06T19:10:59.937Z,6.83
2018-10-06T19:13:29.506Z,6.33
2018-10-06T19:16:02.606Z,7.47
2018-10-06T19:18:31.543Z,5.63
2018-10-06T19:21:09.944Z,6.97
2018-10-06T19:23:39.848Z,5.60
2018-10-06T19:26:09.559Z,4.63
2018-10-06T19:28:39.053Z,7.17
2018-10-06T19:31:20.775Z,8.17
2018-10-06T19:33:49.455Z,5.03
2018-10-06T19:36:19.660Z,4.57
2018-10-06T19:38:49.232Z,4.77
2018-10-06T19:43:52.564Z,4.20
2018-10-06T19:46:21.667Z,4.47
2018-10-06T19:48:51.108Z,5.10
2018-10-06T19:51:25.301Z,5.23
2018-10-06T19:53:54.824Z,5.77
2018-10-06T19:56:27.408Z,5.47
2018-10-06T19:58:57.811Z,5.63
2018-10-06T20:01:26.975Z,4.90
2018-10-06T20:03:56.118Z,6.80
2018-10-06T20:06:29.243Z,5.33
2018-10-06T20:08:58.890Z,5.27
2018-10-06T20:11:36.575Z,5.63
2018-10-06T20:14:06.509Z,5.53
2018-10-06T20:16:40.346Z,6.23
2018-10-06T20:19:10.114Z,5.63
2018-10-06T20:21:39.621Z,5.60
2018-10-06T20:24:08.367Z,8.63
2018-10-06T20:26:38.724Z,6.57
2018-10-06T20:29:08.196Z,5.53
2018-10-06T20:31:49.879Z,5.40
2018-10-06T20:34:18.810Z,5.67
2018-10-06T20:36:47.488Z,5.70
2018-10-06T20:39:16.595Z,5.60
2018-10-06T20:41:45.335Z,5.17
2018-10-06T20:48:49.394Z,5.30
2018-10-06T20:51:18.671Z,8.13
2018-10-06T20:53:52.450Z,6.47
2018-10-06T20:56:21.922Z,6.23
2018-10-06T20:58:55.460Z,6.10
2018-10-06T21:01:24.138Z,7.60
2018-10-06T21:03:59.274Z,6.83
2018-10-06T21:06:27.918Z,6.60
2018-10-06T21:09:02.256Z,6.17
2018-10-06T21:11:36.168Z,6.30
2018-10-06T21:14:05.816Z,7.47
2018-10-06T21:16:35.099Z,8.00
2018-10-06T21:19:08.442Z,7.33
2018-10-06T21:21:38.545Z,6.77
2018-10-06T21:24:11.985Z,5.73
2018-10-06T21:26:40.654Z,6.40
2018-10-06T21:29:14.314Z,6.33
2018-10-06T21:31:43.332Z,7.87
2018-10-06T21:34:15.811Z,8.63
2018-10-06T21:36:44.843Z,8.67
2018-10-06T21:39:22.828Z,7.80
2018-10-06T21:41:51.502Z,7.83
2018-10-06T21:47:22.558Z,7.07
2018-10-06T21:49:51.248Z,6.73
2018-10-06T21:52:26.313Z,6.80
2018-10-06T21:54:56.238Z,7.03
2018-10-06T21:57:28.674Z,6.40
2018-10-06T21:59:58.411Z,6.23
2018-10-06T22:02:32.777Z,6.53
2018-10-06T22:05:01.440Z,6.63
2018-10-06T22:07:33.463Z,6.87
2018-10-06T22:10:02.875Z,5.93
2018-10-06T22:12:35.274Z,6.73
2018-10-06T22:15:04.261Z,7.27
2018-10-06T22:17:38.421Z,8.97
2018-10-06T22:20:07.179Z,7.30
2018-10-06T22:22:41.466Z,6.20
2018-10-06T22:25:10.477Z,6.50
2018-10-06T22:32:11.816Z,7.13
2018-10-06T22:37:21.285Z,9.27
2018-10-06T22:39:49.967Z,9.03
2018-10-06T22:42:18.745Z,8.40
2018-10-06T22:49:22.025Z,8.47
2018-10-06T22:56:25.813Z,7.40
2018-10-06T22:58:59.277Z,7.90
2018-10-06T23:01:27.947Z,7.10
2018-10-06T23:04:01.638Z,7.77
2018-10-06T23:06:30.295Z,7.20
2018-10-06T23:08:59.632Z,8.17
2018-10-06T23:23:23.301Z,9.20
2018-10-06T23:25:53.838Z,9.53
2018-10-06T23:28:22.508Z,9.07
2018-10-06T23:38:05.017Z,7.87
2018-10-06T23:40:34.451Z,8.57
2018-10-06T23:52:01.732Z,11.37
2018-10-06T23:54:30.685Z,13.67
2018-10-06T23:57:00.250Z,13.63
2018-10-06T23:59:33.679Z,14.30
